createdAt,value
2023-02-08T00:00:02.740Z,83.45
2023-02-08T00:02:29.342Z,83.26
2023-02-08T00:04:55.920Z,83.82
2023-02-08T00:07:22.521Z,83.68
2023-02-08T00:09:49.384Z,84.50
2023-02-08T00:12:16.941Z,84.82
2023-02-08T00:14:43.528Z,84.54
2023-02-08T00:17:10.124Z,85.26
2023-02-08T00:19:36.709Z,85.60
2023-02-08T00:22:03.296Z,86.13
2023-02-08T00:24:29.882Z,86.05
2023-02-08T00:26:56.488Z,86.61
2023-02-08T00:29:23.082Z,86.59
2023-02-08T00:31:49.737Z,86.42
2023-02-08T00:34:16.330Z,85.33
2023-02-08T00:36:42.875Z,85.37
2023-02-08T00:39:09.520Z,85.23
2023-02-08T00:41:36.104Z,85.17
2023-02-08T00:44:02.686Z,85.57
2023-02-08T00:46:29.351Z,85.48
2023-02-08T00:48:55.890Z,85.32
2023-02-08T00:51:22.536Z,85.63
2023-02-08T00:53:49.090Z,85.59
2023-02-08T00:56:16.150Z,85.41
2023-02-08T00:58:43.100Z,86.16
2023-02-08T01:01:10.047Z,86.08
2023-02-08T01:03:39.443Z,85.25
2023-02-08T01:06:13.672Z,84.78
2023-02-08T01:08:40.362Z,84.67
2023-02-08T01:11:16.306Z,84.30
2023-02-08T01:13:42.953Z,84.39
2023-02-08T01:16:11.156Z,84.42
2023-02-08T01:18:38.540Z,84.27
2023-02-08T01:21:13.988Z,83.74
2023-02-08T01:23:41.552Z,84.13
2023-02-08T01:26:10.184Z,84.50
2023-02-08T01:28:37.271Z,84.31
2023-02-08T01:31:08.950Z,84.39
2023-02-08T01:33:36.302Z,83.98
2023-02-08T01:36:03.498Z,84.37
2023-02-08T01:38:30.907Z,84.74
2023-02-08T01:40:57.496Z,84.34
2023-02-08T01:43:29.855Z,84.67
2023-02-08T01:45:56.447Z,85.11
2023-02-08T01:48:37.507Z,84.95
2023-02-08T01:51:13.481Z,84.85
2023-02-08T01:53:41.457Z,85.03
2023-02-08T01:56:13.124Z,84.96
2023-02-08T01:58:51.464Z,84.44
2023-02-08T02:01:18.299Z,84.08
2023-02-08T02:03:45.172Z,84.59
2023-02-08T02:06:17.067Z,84.21
2023-02-08T02:09:05.488Z,84.07
2023-02-08T02:11:32.315Z,83.89
2023-02-08T02:13:59.107Z,83.39
2023-02-08T02:16:25.691Z,83.22
2023-02-08T02:18:52.554Z,82.88
2023-02-08T02:21:22.161Z,83.17
2023-02-08T02:24:17.562Z,83.28
2023-02-08T02:27:05.587Z,83.39
2023-02-08T02:29:32.133Z,83.17
2023-02-08T02:32:22.146Z,82.45
2023-02-08T02:34:58.833Z,82.96
2023-02-08T02:37:49.255Z,83.24
2023-02-08T02:40:36.992Z,84.20
2023-02-08T02:43:42.881Z,84.44
2023-02-08T02:46:27.180Z,84.24
2023-02-08T02:49:02.564Z,83.96
2023-02-08T02:51:33.925Z,82.53
2023-02-08T02:54:07.152Z,81.77
2023-02-08T02:56:43.208Z,81.65
2023-02-08T02:59:11.629Z,80.92
2023-02-08T03:01:39.490Z,80.83
2023-02-08T03:04:33.675Z,79.49
2023-02-08T03:07:14.585Z,79.51
2023-02-08T03:09:50.443Z,78.60
2023-02-08T03:12:49.017Z,77.51
2023-02-08T03:15:30.390Z,76.89
2023-02-08T03:18:12.161Z,75.57
2023-02-08T03:20:43.160Z,74.95
2023-02-08T03:23:19.672Z,74.88
2023-02-08T03:26:37.148Z,74.36
2023-02-08T03:29:14.073Z,73.66
2023-02-08T03:32:06.728Z,74.27
2023-02-08T03:35:15.400Z,72.80
2023-02-08T03:38:05.408Z,72.69
2023-02-08T03:40:35.173Z,71.85
2023-02-08T03:43:09.094Z,72.37
2023-02-08T03:45:52.641Z,71.27
2023-02-08T03:48:21.884Z,71.53
2023-02-08T03:50:52.726Z,71.19
2023-02-08T03:53:22.616Z,70.61
2023-02-08T03:55:56.627Z,69.67
2023-02-08T03:58:32.456Z,70.38
2023-02-08T04:01:05.975Z,70.58
2023-02-08T04:03:34.777Z,68.96
2023-02-08T04:06:01.560Z,68.90
2023-02-08T04:08:28.148Z,69.08
2023-02-08T04:10:54.784Z,68.09
2023-02-08T04:13:21.481Z,67.68
2023-02-08T04:15:48.117Z,67.89
2023-02-08T04:18:14.728Z,68.22
2023-02-08T04:20:41.585Z,66.86
2023-02-08T04:23:08.316Z,67.65
2023-02-08T04:25:34.834Z,67.38
2023-02-08T04:28:01.424Z,66.48
2023-02-08T04:30:28.058Z,66.53
2023-02-08T04:32:54.637Z,66.14
2023-02-08T04:35:21.290Z,66.49
2023-02-08T04:37:47.907Z,65.78
2023-02-08T04:40:14.517Z,66.00
2023-02-08T04:42:41.121Z,64.97
2023-02-08T04:45:08.221Z,65.36
2023-02-08T04:47:34.752Z,65.66
2023-02-08T04:50:01.584Z,65.70
2023-02-08T04:52:28.242Z,65.71
2023-02-08T04:54:54.813Z,64.94
2023-02-08T04:57:21.397Z,64.33
2023-02-08T04:59:47.982Z,64.48
2023-02-08T05:02:14.530Z,65.31
2023-02-08T05:04:41.172Z,64.45
2023-02-08T05:07:07.755Z,65.40
2023-02-08T05:09:34.347Z,64.01
2023-02-08T05:12:00.903Z,64.36
2023-02-08T05:14:27.496Z,64.74
2023-02-08T05:16:54.058Z,64.55
2023-02-08T05:19:20.612Z,64.06
2023-02-08T05:21:47.201Z,64.28
2023-02-08T05:24:13.898Z,64.13
2023-02-08T05:26:41.564Z,63.93
2023-02-08T05:29:08.238Z,63.14
2023-02-08T05:31:34.951Z,63.41
2023-02-08T05:34:01.786Z,63.69
2023-02-08T05:36:28.564Z,63.68
2023-02-08T05:38:55.097Z,63.80
2023-02-08T05:41:21.842Z,63.80
2023-02-08T05:43:48.461Z,64.06
2023-02-08T05:46:15.155Z,63.84
2023-02-08T05:48:41.779Z,63.44
2023-02-08T05:51:08.840Z,63.51
2023-02-08T05:53:35.418Z,63.72
2023-02-08T05:56:01.951Z,62.95
2023-02-08T05:58:28.903Z,62.87
2023-02-08T06:00:55.474Z,62.57
2023-02-08T06:03:22.600Z,62.68
2023-02-08T06:05:49.236Z,62.63
2023-02-08T06:08:15.856Z,62.68
2023-02-08T06:10:43.302Z,63.57
2023-02-08T06:13:09.881Z,63.33
2023-02-08T06:15:36.414Z,63.94
2023-02-08T06:18:03.261Z,63.89
2023-02-08T06:20:29.822Z,64.33
2023-02-08T06:22:56.466Z,64.81
2023-02-08T06:25:23.018Z,64.64
2023-02-08T06:27:49.626Z,64.25
2023-02-08T06:30:16.873Z,65.02
2023-02-08T06:32:43.518Z,65.07
2023-02-08T06:35:10.277Z,64.87
2023-02-08T06:37:37.314Z,65.24
2023-02-08T06:40:05.175Z,65.69
2023-02-08T06:42:31.871Z,65.07
2023-02-08T06:44:59.060Z,65.05
2023-02-08T06:47:27.143Z,65.57
2023-02-08T06:49:53.947Z,65.96
2023-02-08T06:52:21.948Z,65.59
2023-02-08T06:54:48.646Z,65.53
2023-02-08T06:57:15.602Z,65.15
2023-02-08T06:59:42.622Z,65.28
2023-02-08T07:02:18.474Z,65.49
2023-02-08T07:04:45.560Z,65.54
2023-02-08T07:07:17.042Z,65.35
2023-02-08T07:09:43.652Z,64.54
2023-02-08T07:12:10.529Z,64.17
2023-02-08T07:14:40.044Z,63.92
2023-02-08T07:17:06.994Z,62.94
2023-02-08T07:19:33.950Z,62.74
2023-02-08T07:22:07.243Z,62.22
2023-02-08T07:24:39.314Z,61.74
2023-02-08T07:27:07.644Z,62.43
2023-02-08T07:29:34.767Z,61.88
2023-02-08T07:32:02.614Z,62.10
2023-02-08T07:34:30.763Z,61.77
2023-02-08T07:36:57.354Z,61.03
2023-02-08T07:39:24.249Z,60.92
2023-02-08T07:41:50.998Z,61.46
2023-02-08T07:44:17.801Z,60.89
2023-02-08T07:46:44.506Z,61.26
2023-02-08T07:49:11.120Z,60.81
2023-02-08T07:51:37.857Z,59.88
2023-02-08T07:54:04.570Z,60.59
2023-02-08T07:56:31.349Z,60.30
2023-02-08T07:58:57.903Z,59.36
2023-02-08T08:01:24.556Z,59.40
2023-02-08T08:03:52.330Z,59.19
2023-02-08T08:06:20.498Z,59.54
2023-02-08T08:08:47.671Z,59.16
2023-02-08T08:11:15.305Z,59.15
2023-02-08T08:13:42.105Z,58.90
2023-02-08T08:16:09.217Z,59.20
2023-02-08T08:18:36.256Z,58.38
2023-02-08T08:21:03.645Z,58.14
2023-02-08T08:23:33.046Z,57.68
2023-02-08T08:26:00.571Z,57.24
2023-02-08T08:28:27.521Z,56.64
2023-02-08T08:30:54.493Z,56.41
2023-02-08T08:33:21.218Z,56.73
2023-02-08T08:35:47.925Z,56.64
2023-02-08T08:38:14.540Z,56.37
2023-02-08T08:40:41.444Z,55.36
2023-02-08T08:43:08.271Z,54.95
2023-02-08T08:45:36.261Z,54.99
2023-02-08T08:48:06.306Z,55.42
2023-02-08T08:50:32.872Z,53.75
2023-02-08T08:52:59.571Z,52.82
2023-02-08T08:55:27.843Z,53.80
2023-02-08T08:57:55.055Z,53.41
2023-02-08T09:00:21.864Z,52.48
2023-02-08T09:02:48.721Z,52.44
2023-02-08T09:05:15.310Z,52.53
2023-02-08T09:07:41.915Z,52.74
2023-02-08T09:10:08.627Z,50.92
2023-02-08T09:12:35.319Z,50.80
2023-02-08T09:15:01.924Z,51.14
2023-02-08T09:17:28.607Z,54.14
2023-02-08T09:19:55.192Z,52.03
2023-02-08T09:22:21.769Z,50.26
2023-02-08T09:24:48.428Z,48.71
2023-02-08T09:27:15.014Z,46.72
2023-02-08T09:29:41.547Z,47.67
2023-02-08T09:32:10.195Z,46.99
2023-02-08T09:34:39.826Z,43.69
2023-02-08T09:37:07.056Z,43.05
2023-02-08T09:39:34.847Z,42.94
2023-02-08T09:42:20.881Z,40.53
2023-02-08T09:44:53.570Z,39.25
2023-02-08T09:47:32.219Z,39.77
2023-02-08T09:50:34.282Z,40.13
2023-02-08T09:53:20.424Z,37.71
2023-02-08T09:55:51.771Z,35.95
2023-02-08T09:58:34.626Z,34.72
2023-02-08T10:01:04.093Z,34.59
2023-02-08T10:03:45.131Z,34.70
2023-02-08T10:06:17.504Z,33.72
2023-02-08T10:08:46.163Z,34.28
2023-02-08T10:11:27.858Z,33.68
2023-02-08T10:14:09.657Z,31.98
2023-02-08T10:17:10.180Z,31.71
2023-02-08T10:19:39.462Z,31.64
2023-02-08T10:22:38.973Z,31.18
2023-02-08T10:25:27.996Z,31.57
2023-02-08T10:28:16.278Z,30.89
2023-02-08T10:31:10.431Z,31.18
2023-02-08T10:33:58.532Z,29.82
2023-02-08T10:36:28.726Z,30.14
2023-02-08T10:38:56.261Z,28.75
2023-02-08T10:41:32.165Z,28.36
2023-02-08T10:44:13.011Z,28.39
2023-02-08T10:46:51.213Z,29.24
2023-02-08T10:49:31.958Z,28.82
2023-02-08T10:51:58.611Z,28.72
2023-02-08T10:54:25.213Z,28.40
2023-02-08T10:56:58.343Z,28.60
2023-02-08T10:59:35.528Z,28.37
2023-02-08T11:02:02.222Z,29.19
2023-02-08T11:04:29.089Z,27.25
2023-02-08T11:06:55.660Z,27.01
2023-02-08T11:09:31.299Z,27.28
2023-02-08T11:12:00.276Z,28.00
2023-02-08T11:14:46.860Z,27.73
2023-02-08T11:17:31.480Z,27.11
2023-02-08T11:19:59.537Z,27.23
2023-02-08T11:22:31.227Z,27.05
2023-02-08T11:25:07.607Z,26.70
2023-02-08T11:27:36.695Z,28.18
2023-02-08T11:30:24.268Z,28.06
2023-02-08T11:33:18.617Z,26.58
2023-02-08T11:35:54.951Z,25.70
2023-02-08T11:38:28.251Z,25.84
2023-02-08T11:40:58.647Z,25.67
2023-02-08T11:43:34.956Z,25.57
2023-02-08T11:46:04.963Z,24.74
2023-02-08T11:48:42.869Z,25.13
2023-02-08T11:51:12.737Z,24.60
2023-02-08T11:53:40.996Z,24.01
2023-02-08T11:56:18.548Z,22.97
2023-02-08T11:59:18.738Z,23.01
2023-02-08T12:01:45.736Z,23.02
2023-02-08T12:04:15.017Z,22.94
2023-02-08T12:06:53.888Z,22.26
2023-02-08T12:09:53.315Z,22.67
2023-02-08T12:12:35.908Z,23.24
2023-02-08T12:15:48.123Z,22.71
2023-02-08T12:18:22.746Z,23.54
2023-02-08T12:20:59.994Z,22.94
2023-02-08T12:23:53.419Z,22.78
2023-02-08T12:26:28.946Z,22.23
2023-02-08T12:29:47.304Z,21.96
2023-02-08T12:32:36.311Z,22.64
2023-02-08T12:35:50.964Z,22.23
2023-02-08T12:38:59.310Z,22.33
2023-02-08T12:41:44.477Z,21.75
2023-02-08T12:44:38.470Z,21.88
2023-02-08T12:47:39.074Z,22.45
2023-02-08T12:50:31.833Z,21.90
2023-02-08T12:53:05.876Z,21.53
2023-02-08T12:55:38.846Z,22.07
2023-02-08T12:58:32.426Z,21.06
2023-02-08T13:01:27.621Z,21.79
2023-02-08T13:04:13.612Z,23.01
2023-02-08T13:06:43.085Z,22.31
2023-02-08T13:09:46.711Z,22.51
2023-02-08T13:12:22.175Z,21.79
2023-02-08T13:15:28.399Z,21.78
2023-02-08T13:18:16.748Z,22.39
2023-02-08T13:20:46.154Z,21.78
2023-02-08T13:23:26.513Z,22.77
2023-02-08T13:26:00.744Z,22.45
2023-02-08T13:28:28.362Z,21.51
2023-02-08T13:31:08.609Z,22.00
2023-02-08T13:33:44.444Z,21.79
2023-02-08T13:36:25.804Z,20.98
2023-02-08T13:38:53.705Z,21.71
2023-02-08T13:41:24.696Z,21.47
2023-02-08T13:44:01.561Z,21.12
2023-02-08T13:46:35.404Z,20.76
2023-02-08T13:49:01.998Z,21.59
2023-02-08T13:51:31.536Z,22.20
2023-02-08T13:53:58.101Z,23.32
2023-02-08T13:56:45.168Z,22.85
2023-02-08T13:59:24.671Z,22.33
2023-02-08T14:02:12.908Z,23.35
2023-02-08T14:04:43.134Z,24.24
2023-02-08T14:07:15.838Z,24.73
2023-02-08T14:10:30.573Z,26.73
2023-02-08T14:13:03.923Z,28.51
2023-02-08T14:15:33.866Z,28.51
2023-02-08T14:18:01.873Z,25.85
2023-02-08T14:20:33.797Z,27.43
2023-02-08T14:23:21.645Z,26.37
2023-02-08T14:25:50.996Z,26.59
2023-02-08T14:28:32.128Z,26.29
2023-02-08T14:31:01.206Z,25.00
2023-02-08T14:33:38.706Z,24.88
2023-02-08T14:36:08.813Z,27.18
2023-02-08T14:38:52.406Z,28.03
2023-02-08T14:41:54.485Z,27.23
2023-02-08T14:44:39.479Z,27.13
2023-02-08T14:47:36.943Z,26.36
2023-02-08T14:50:26.141Z,25.67
2023-02-08T14:52:58.904Z,25.61
2023-02-08T14:55:30.395Z,25.56
2023-02-08T14:58:00.688Z,25.48
2023-02-08T15:00:34.194Z,25.47
2023-02-08T15:03:02.093Z,26.34
2023-02-08T15:05:31.724Z,26.28
2023-02-08T15:08:00.260Z,26.30
2023-02-08T15:10:28.634Z,27.20
2023-02-08T15:13:02.480Z,29.06
2023-02-08T15:15:36.637Z,28.20
2023-02-08T15:18:06.207Z,28.80
2023-02-08T15:20:35.923Z,30.49
2023-02-08T15:23:19.132Z,30.42
2023-02-08T15:25:56.043Z,31.24
2023-02-08T15:28:25.250Z,32.13
2023-02-08T15:31:09.263Z,31.00
2023-02-08T15:33:39.337Z,31.94
2023-02-08T15:36:08.912Z,32.81
2023-02-08T15:38:38.809Z,33.05
2023-02-08T15:41:08.469Z,33.68
2023-02-08T15:43:37.297Z,35.24
2023-02-08T15:46:06.978Z,34.10
2023-02-08T15:48:35.938Z,35.51
2023-02-08T15:51:03.072Z,35.45
2023-02-08T15:53:30.956Z,34.51
2023-02-08T15:56:03.898Z,35.74
2023-02-08T15:58:35.678Z,36.18
2023-02-08T16:01:05.373Z,34.92
2023-02-08T16:03:33.352Z,37.96
2023-02-08T16:06:06.693Z,37.56
2023-02-08T16:08:39.080Z,36.67
2023-02-08T16:11:23.135Z,38.46
2023-02-08T16:13:53.151Z,38.85
2023-02-08T16:16:26.648Z,39.39
2023-02-08T16:19:01.379Z,38.73
2023-02-08T16:21:35.393Z,39.19
2023-02-08T16:24:28.330Z,39.69
2023-02-08T16:26:57.067Z,40.33
2023-02-08T16:29:46.287Z,39.99
2023-02-08T16:32:28.463Z,40.69
2023-02-08T16:34:55.514Z,40.88
2023-02-08T16:37:33.789Z,41.30
2023-02-08T16:40:20.539Z,41.50
2023-02-08T16:42:47.499Z,41.59
2023-02-08T16:45:17.479Z,43.18
2023-02-08T16:47:50.064Z,43.59
2023-02-08T16:50:23.166Z,44.10
2023-02-08T16:52:55.212Z,42.70
2023-02-08T16:55:27.833Z,45.06
2023-02-08T16:57:57.202Z,44.40
2023-02-08T17:00:30.026Z,44.75
2023-02-08T17:02:56.747Z,43.87
2023-02-08T17:05:27.125Z,44.41
2023-02-08T17:07:53.796Z,45.26
2023-02-08T17:10:25.711Z,45.67
2023-02-08T17:13:03.809Z,44.91
2023-02-08T17:15:40.459Z,45.20
2023-02-08T17:18:07.182Z,45.24
2023-02-08T17:20:35.698Z,43.97
2023-02-08T17:23:04.454Z,45.56
2023-02-08T17:25:32.623Z,44.63
2023-02-08T17:28:05.171Z,44.25
2023-02-08T17:30:37.793Z,45.41
2023-02-08T17:33:06.792Z,45.67
2023-02-08T17:35:35.365Z,45.61
2023-02-08T17:38:02.117Z,44.73
2023-02-08T17:40:32.661Z,45.70
2023-02-08T17:43:00.217Z,46.38
2023-02-08T17:45:28.198Z,44.87
2023-02-08T17:47:56.307Z,47.01
2023-02-08T17:50:23.667Z,46.35
2023-02-08T17:52:50.368Z,47.12
2023-02-08T17:55:18.587Z,47.43
2023-02-08T17:57:45.701Z,47.17
2023-02-08T18:00:18.606Z,46.97
2023-02-08T18:02:47.452Z,47.53
2023-02-08T18:05:18.669Z,48.03
2023-02-08T18:07:45.244Z,47.59
2023-02-08T18:10:15.675Z,47.90
2023-02-08T18:12:42.993Z,47.74
2023-02-08T18:15:16.114Z,47.62
2023-02-08T18:17:44.029Z,48.76
2023-02-08T18:20:14.252Z,48.30
2023-02-08T18:22:42.997Z,49.27
2023-02-08T18:25:11.032Z,49.00
2023-02-08T18:27:37.913Z,49.05
2023-02-08T18:30:04.983Z,49.32
2023-02-08T18:32:31.602Z,48.51
2023-02-08T18:34:58.644Z,50.00
2023-02-08T18:37:25.660Z,50.59
2023-02-08T18:39:52.379Z,50.65
2023-02-08T18:42:19.174Z,51.48
2023-02-08T18:44:45.916Z,51.50
2023-02-08T18:47:12.683Z,51.49
2023-02-08T18:49:42.167Z,51.64
2023-02-08T18:52:11.422Z,51.82
2023-02-08T18:54:39.736Z,51.44
2023-02-08T18:57:09.578Z,52.00
2023-02-08T18:59:37.275Z,51.85
2023-02-08T19:02:07.085Z,51.74
2023-02-08T19:04:40.435Z,51.37
2023-02-08T19:07:07.843Z,51.91
2023-02-08T19:09:36.165Z,51.74
2023-02-08T19:12:03.166Z,53.20
2023-02-08T19:14:30.244Z,52.95
2023-02-08T19:16:57.067Z,53.09
2023-02-08T19:19:23.610Z,54.46
2023-02-08T19:21:50.203Z,53.77
2023-02-08T19:24:16.782Z,53.00
2023-02-08T19:26:43.420Z,53.30
2023-02-08T19:29:15.665Z,53.38
2023-02-08T19:31:42.984Z,53.96
2023-02-08T19:34:10.730Z,54.47
2023-02-08T19:36:41.928Z,55.58
2023-02-08T19:39:08.523Z,56.00
2023-02-08T19:41:37.990Z,54.98
2023-02-08T19:44:07.307Z,56.99
2023-02-08T19:46:38.714Z,56.64
2023-02-08T19:49:06.779Z,57.24
2023-02-08T19:51:36.925Z,56.73
2023-02-08T19:54:09.256Z,57.36
2023-02-08T19:56:36.329Z,58.76
2023-02-08T19:59:06.278Z,59.03
2023-02-08T20:01:34.402Z,56.42
2023-02-08T20:04:01.971Z,57.10
2023-02-08T20:06:34.779Z,58.55
2023-02-08T20:09:01.787Z,58.09
2023-02-08T20:11:31.083Z,57.25
2023-02-08T20:13:59.676Z,57.76
2023-02-08T20:16:29.362Z,59.16
2023-02-08T20:18:59.584Z,59.58
2023-02-08T20:21:27.032Z,60.20
2023-02-08T20:23:53.872Z,59.84
2023-02-08T20:26:24.382Z,59.56
2023-02-08T20:28:53.888Z,61.03
2023-02-08T20:31:24.166Z,62.77
2023-02-08T20:33:51.829Z,63.40
2023-02-08T20:36:23.982Z,64.48
2023-02-08T20:38:53.296Z,64.47
2023-02-08T20:41:21.693Z,65.42
2023-02-08T20:43:48.777Z,64.74
2023-02-08T20:46:19.377Z,64.13
2023-02-08T20:48:46.125Z,65.64
2023-02-08T20:51:15.347Z,65.21
2023-02-08T20:53:42.909Z,65.06
2023-02-08T20:56:12.564Z,65.63
2023-02-08T20:58:39.549Z,66.70
2023-02-08T21:01:14.766Z,66.44
2023-02-08T21:03:41.716Z,67.88
2023-02-08T21:06:23.312Z,67.01
2023-02-08T21:08:55.332Z,67.95
2023-02-08T21:11:25.083Z,66.99
2023-02-08T21:13:51.865Z,68.35
2023-02-08T21:16:18.910Z,67.52
2023-02-08T21:18:45.874Z,68.74
2023-02-08T21:21:13.288Z,68.13
2023-02-08T21:23:39.857Z,69.56
2023-02-08T21:26:08.524Z,67.58
2023-02-08T21:28:35.706Z,66.86
2023-02-08T21:31:05.970Z,67.78
2023-02-08T21:33:32.929Z,69.61
2023-02-08T21:36:10.319Z,67.51
2023-02-08T21:38:36.966Z,70.20
2023-02-08T21:41:12.964Z,67.05
2023-02-08T21:43:39.811Z,68.87
2023-02-08T21:46:08.216Z,69.68
2023-02-08T21:48:55.848Z,70.01
2023-02-08T21:51:42.313Z,69.15
2023-02-08T21:54:31.379Z,71.65
2023-02-08T21:56:59.592Z,71.20
2023-02-08T21:59:26.728Z,71.08
2023-02-08T22:01:53.296Z,70.74
2023-02-08T22:04:19.876Z,72.22
2023-02-08T22:06:47.112Z,72.81
2023-02-08T22:09:13.692Z,72.10
2023-02-08T22:11:42.651Z,72.39
2023-02-08T22:14:13.546Z,72.69
2023-02-08T22:16:40.935Z,73.36
2023-02-08T22:19:07.864Z,73.96
2023-02-08T22:21:34.807Z,74.15
2023-02-08T22:24:01.574Z,72.86
2023-02-08T22:26:28.429Z,73.85
2023-02-08T22:28:55.061Z,73.00
2023-02-08T22:31:21.746Z,72.80
2023-02-08T22:33:48.492Z,73.91
2023-02-08T22:36:15.041Z,73.77
2023-02-08T22:38:41.692Z,74.80
2023-02-08T22:41:16.309Z,72.32
2023-02-08T22:43:43.162Z,75.28
2023-02-08T22:46:09.927Z,75.50
2023-02-08T22:48:36.991Z,75.80
2023-02-08T22:51:08.521Z,76.04
2023-02-08T22:53:35.369Z,75.23
2023-02-08T22:56:02.374Z,73.53
2023-02-08T22:58:29.071Z,74.45
2023-02-08T23:00:56.366Z,75.47
2023-02-08T23:03:23.675Z,74.88
2023-02-08T23:05:51.749Z,74.75
2023-02-08T23:08:21.305Z,76.13
2023-02-08T23:10:48.134Z,76.47
2023-02-08T23:13:14.962Z,76.63
2023-02-08T23:15:43.841Z,77.80
2023-02-08T23:18:10.493Z,76.00
2023-02-08T23:20:39.220Z,75.56
2023-02-08T23:23:05.796Z,75.88
2023-02-08T23:25:32.381Z,75.79
2023-02-08T23:27:59.141Z,75.90
2023-02-08T23:30:25.780Z,76.90
2023-02-08T23:32:52.332Z,77.65
2023-02-08T23:35:18.960Z,77.07
2023-02-08T23:37:45.514Z,78.76
2023-02-08T23:40:12.417Z,78.75
2023-02-08T23:42:39.091Z,77.13
2023-02-08T23:45:06.229Z,79.86
2023-02-08T23:47:33.015Z,77.75
2023-02-08T23:49:59.637Z,76.42
2023-02-08T23:52:26.368Z,78.00
2023-02-08T23:54:52.978Z,77.24
2023-02-08T23:57:19.551Z,77.08
2023-02-08T23:59:46.220Z,76.65
